sensor_id;sensor_type;location;lat;lon;timestamp;temperature;humidity
6357;DHT22;3211;53.452;-2.264;2023-04-01T00:00:26;10.30;99.90
6357;DHT22;3211;53.452;-2.264;2023-04-01T00:02:53;10.30;99.90
6357;DHT22;3211;53.452;-2.264;2023-04-01T00:05:20;10.20;99.90
6357;DHT22;3211;53.452;-2.264;2023-04-01T00:07:47;10.10;99.90
6357;DHT22;3211;53.452;-2.264;2023-04-01T00:10:15;9.90;99.90
6357;DHT22;3211;53.452;-2.264;2023-04-01T00:12:43;9.90;99.90
6357;DHT22;3211;53.452;-2.264;2023-04-01T00:15:11;9.80;99.90
6357;DHT22;3211;53.452;-2.264;2023-04-01T00:17:38;9.90;99.90
6357;DHT22;3211;53.452;-2.264;2023-04-01T00:20:06;10.00;99.90
6357;DHT22;3211;53.452;-2.264;2023-04-01T00:22:34;10.00;99.90
6357;DHT22;3211;53.452;-2.264;2023-04-01T00:25:02;9.90;99.90
6357;DHT22;3211;53.452;-2.264;2023-04-01T00:27:31;9.90;99.90
6357;DHT22;3211;53.452;-2.264;2023-04-01T00:29:58;9.60;99.90
6357;DHT22;3211;53.452;-2.264;2023-04-01T00:32:25;9.70;99.90
6357;DHT22;3211;53.452;-2.264;2023-04-01T00:34:53;9.80;99.90
6357;DHT22;3211;53.452;-2.264;2023-04-01T00:37:20;9.70;99.90
6357;DHT22;3211;53.452;-2.264;2023-04-01T00:39:48;9.70;99.90
6357;DHT22;3211;53.452;-2.264;2023-04-01T00:42:15;9.80;99.90
6357;DHT22;3211;53.452;-2.264;2023-04-01T00:44:47;9.80;99.90
6357;DHT22;3211;53.452;-2.264;2023-04-01T00:47:14;9.90;99.90
6357;DHT22;3211;53.452;-2.264;2023-04-01T00:49:45;9.80;99.90
6357;DHT22;3211;53.452;-2.264;2023-04-01T00:52:15;9.90;99.90
6357;DHT22;3211;53.452;-2.264;2023-04-01T00:54:45;9.80;99.90
6357;DHT22;3211;53.452;-2.264;2023-04-01T00:57:14;9.90;99.90
6357;DHT22;3211;53.452;-2.264;2023-04-01T00:59:46;9.80;99.90
6357;DHT22;3211;53.452;-2.264;2023-04-01T01:02:15;9.80;99.90
6357;DHT22;3211;53.452;-2.264;2023-04-01T01:04:43;9.70;99.90
6357;DHT22;3211;53.452;-2.264;2023-04-01T01:07:20;9.60;99.90
6357;DHT22;3211;53.452;-2.264;2023-04-01T01:09:55;9.70;99.90
6357;DHT22;3211;53.452;-2.264;2023-04-01T01:12:27;9.70;99.90
6357;DHT22;3211;53.452;-2.264;2023-04-01T01:15:07;9.70;99.90
6357;DHT22;3211;53.452;-2.264;2023-04-01T01:17:46;9.70;99.90
6357;DHT22;3211;53.452;-2.264;2023-04-01T01:26:15;9.60;99.90
6357;DHT22;3211;53.452;-2.264;2023-04-01T01:28:51;9.60;99.90
6357;DHT22;3211;53.452;-2.264;2023-04-01T01:31:26;9.50;99.90
6357;DHT22;3211;53.452;-2.264;2023-04-01T01:34:12;9.50;99.90
6357;DHT22;3211;53.452;-2.264;2023-04-01T01:36:44;9.50;99.90
6357;DHT22;3211;53.452;-2.264;2023-04-01T01:39:12;9.50;99.90
6357;DHT22;3211;53.452;-2.264;2023-04-01T01:41:42;9.50;99.90
6357;DHT22;3211;53.452;-2.264;2023-04-01T01:44:11;9.50;99.90
6357;DHT22;3211;53.452;-2.264;2023-04-01T01:46:41;9.30;99.90
6357;DHT22;3211;53.452;-2.264;2023-04-01T01:49:10;9.40;99.90
6357;DHT22;3211;53.452;-2.264;2023-04-01T01:51:38;9.40;99.90
6357;DHT22;3211;53.452;-2.264;2023-04-01T01:54:07;9.40;99.90
6357;DHT22;3211;53.452;-2.264;2023-04-01T01:56:38;9.50;99.90
6357;DHT22;3211;53.452;-2.264;2023-04-01T01:59:08;9.50;99.90
6357;DHT22;3211;53.452;-2.264;2023-04-01T02:01:39;9.60;99.90
6357;DHT22;3211;53.452;-2.264;2023-04-01T02:04:09;9.50;99.90
6357;DHT22;3211;53.452;-2.264;2023-04-01T02:06:41;9.40;99.90
6357;DHT22;3211;53.452;-2.264;2023-04-01T02:09:10;9.40;99.90
6357;DHT22;3211;53.452;-2.264;2023-04-01T02:11:41;9.30;99.90
6357;DHT22;3211;53.452;-2.264;2023-04-01T02:14:13;9.40;99.90
6357;DHT22;3211;53.452;-2.264;2023-04-01T02:16:46;9.40;99.90
6357;DHT22;3211;53.452;-2.264;2023-04-01T02:19:17;9.30;99.90
6357;DHT22;3211;53.452;-2.264;2023-04-01T02:21:49;9.30;99.90
6357;DHT22;3211;53.452;-2.264;2023-04-01T02:24:20;9.30;99.90
6357;DHT22;3211;53.452;-2.264;2023-04-01T02:26:48;9.40;99.90
6357;DHT22;3211;53.452;-2.264;2023-04-01T02:29:18;9.40;99.90
6357;DHT22;3211;53.452;-2.264;2023-04-01T02:31:46;9.30;99.90
6357;DHT22;3211;53.452;-2.264;2023-04-01T02:34:14;9.30;99.90
6357;DHT22;3211;53.452;-2.264;2023-04-01T02:36:41;9.30;99.90
6357;DHT22;3211;53.452;-2.264;2023-04-01T02:39:28;9.30;99.90
6357;DHT22;3211;53.452;-2.264;2023-04-01T02:42:15;9.30;99.90
6357;DHT22;3211;53.452;-2.264;2023-04-01T02:44:41;9.30;99.90
6357;DHT22;3211;53.452;-2.264;2023-04-01T02:47:09;9.30;99.90
6357;DHT22;3211;53.452;-2.264;2023-04-01T02:49:36;9.20;99.90
6357;DHT22;3211;53.452;-2.264;2023-04-01T02:52:04;9.10;99.90
6357;DHT22;3211;53.452;-2.264;2023-04-01T02:54:32;9.20;99.90
6357;DHT22;3211;53.452;-2.264;2023-04-01T02:56:59;9.20;99.90
6357;DHT22;3211;53.452;-2.264;2023-04-01T02:59:26;9.20;99.90
6357;DHT22;3211;53.452;-2.264;2023-04-01T03:01:53;9.40;99.90
6357;DHT22;3211;53.452;-2.264;2023-04-01T03:04:20;9.30;99.90
6357;DHT22;3211;53.452;-2.264;2023-04-01T03:06:47;9.30;99.90
6357;DHT22;3211;53.452;-2.264;2023-04-01T03:09:14;9.30;99.90
6357;DHT22;3211;53.452;-2.264;2023-04-01T03:11:42;9.20;99.90
6357;DHT22;3211;53.452;-2.264;2023-04-01T03:14:09;9.10;99.90
6357;DHT22;3211;53.452;-2.264;2023-04-01T03:16:37;9.00;99.90
6357;DHT22;3211;53.452;-2.264;2023-04-01T03:19:04;9.00;99.90
6357;DHT22;3211;53.452;-2.264;2023-04-01T03:21:30;9.00;99.90
6357;DHT22;3211;53.452;-2.264;2023-04-01T03:23:57;9.00;99.90
6357;DHT22;3211;53.452;-2.264;2023-04-01T03:26:25;9.00;99.90
6357;DHT22;3211;53.452;-2.264;2023-04-01T03:28:55;8.90;99.90
6357;DHT22;3211;53.452;-2.264;2023-04-01T03:31:22;9.00;99.90
6357;DHT22;3211;53.452;-2.264;2023-04-01T03:33:49;9.00;99.90
6357;DHT22;3211;53.452;-2.264;2023-04-01T03:36:16;9.00;99.90
6357;DHT22;3211;53.452;-2.264;2023-04-01T03:38:44;9.00;99.90
6357;DHT22;3211;53.452;-2.264;2023-04-01T03:41:12;8.90;99.90
6357;DHT22;3211;53.452;-2.264;2023-04-01T03:43:39;8.80;99.90
6357;DHT22;3211;53.452;-2.264;2023-04-01T03:46:08;8.90;99.90
6357;DHT22;3211;53.452;-2.264;2023-04-01T03:48:35;8.80;99.90
6357;DHT22;3211;53.452;-2.264;2023-04-01T03:51:06;8.80;99.90
6357;DHT22;3211;53.452;-2.264;2023-04-01T03:53:33;8.60;99.90
6357;DHT22;3211;53.452;-2.264;2023-04-01T03:56:04;8.60;99.90
6357;DHT22;3211;53.452;-2.264;2023-04-01T03:58:31;8.60;99.90
6357;DHT22;3211;53.452;-2.264;2023-04-01T04:00:58;8.70;99.90
6357;DHT22;3211;53.452;-2.264;2023-04-01T04:03:27;8.70;99.90
6357;DHT22;3211;53.452;-2.264;2023-04-01T04:05:53;8.50;99.90
6357;DHT22;3211;53.452;-2.264;2023-04-01T04:08:21;8.40;99.90
6357;DHT22;3211;53.452;-2.264;2023-04-01T04:10:54;8.50;99.90
6357;DHT22;3211;53.452;-2.264;2023-04-01T04:13:21;8.50;99.90
6357;DHT22;3211;53.452;-2.264;2023-04-01T04:15:48;8.50;99.90
6357;DHT22;3211;53.452;-2.264;2023-04-01T04:18:15;8.50;99.90
6357;DHT22;3211;53.452;-2.264;2023-04-01T04:20:45;8.50;99.90
6357;DHT22;3211;53.452;-2.264;2023-04-01T04:23:13;8.50;99.90
6357;DHT22;3211;53.452;-2.264;2023-04-01T04:25:40;8.40;99.90
6357;DHT22;3211;53.452;-2.264;2023-04-01T04:28:07;8.40;99.90
6357;DHT22;3211;53.452;-2.264;2023-04-01T04:30:34;8.30;99.90
6357;DHT22;3211;53.452;-2.264;2023-04-01T04:33:01;8.30;99.90
6357;DHT22;3211;53.452;-2.264;2023-04-01T04:35:28;8.30;99.90
6357;DHT22;3211;53.452;-2.264;2023-04-01T04:37:56;8.30;99.90
6357;DHT22;3211;53.452;-2.264;2023-04-01T04:40:23;8.30;99.90
6357;DHT22;3211;53.452;-2.264;2023-04-01T04:42:50;8.40;99.90
6357;DHT22;3211;53.452;-2.264;2023-04-01T04:45:17;8.40;99.90
6357;DHT22;3211;53.452;-2.264;2023-04-01T04:47:44;8.40;99.90
6357;DHT22;3211;53.452;-2.264;2023-04-01T04:50:11;8.40;99.90
6357;DHT22;3211;53.452;-2.264;2023-04-01T04:52:38;8.40;99.90
6357;DHT22;3211;53.452;-2.264;2023-04-01T04:55:07;8.20;99.90
6357;DHT22;3211;53.452;-2.264;2023-04-01T04:57:34;8.30;99.90
6357;DHT22;3211;53.452;-2.264;2023-04-01T05:00:02;8.30;99.90
6357;DHT22;3211;53.452;-2.264;2023-04-01T05:02:29;8.40;99.90
6357;DHT22;3211;53.452;-2.264;2023-04-01T05:04:56;8.20;99.90
6357;DHT22;3211;53.452;-2.264;2023-04-01T05:07:23;8.20;99.90
6357;DHT22;3211;53.452;-2.264;2023-04-01T05:09:50;8.40;99.90
6357;DHT22;3211;53.452;-2.264;2023-04-01T05:12:18;8.40;99.90
6357;DHT22;3211;53.452;-2.264;2023-04-01T05:14:45;8.50;99.90
6357;DHT22;3211;53.452;-2.264;2023-04-01T05:17:12;8.50;99.90
6357;DHT22;3211;53.452;-2.264;2023-04-01T05:19:40;8.50;99.90
6357;DHT22;3211;53.452;-2.264;2023-04-01T05:22:06;8.50;99.90
6357;DHT22;3211;53.452;-2.264;2023-04-01T05:24:33;8.50;99.90
6357;DHT22;3211;53.452;-2.264;2023-04-01T05:27:00;8.50;99.90
6357;DHT22;3211;53.452;-2.264;2023-04-01T05:29:29;8.50;99.90
6357;DHT22;3211;53.452;-2.264;2023-04-01T05:31:55;8.30;99.90
6357;DHT22;3211;53.452;-2.264;2023-04-01T05:34:22;8.30;99.90
6357;DHT22;3211;53.452;-2.264;2023-04-01T05:36:49;8.10;99.90
6357;DHT22;3211;53.452;-2.264;2023-04-01T05:39:17;8.10;99.90
6357;DHT22;3211;53.452;-2.264;2023-04-01T05:41:44;8.10;99.90
6357;DHT22;3211;53.452;-2.264;2023-04-01T05:44:12;8.20;99.90
6357;DHT22;3211;53.452;-2.264;2023-04-01T05:46:40;8.20;99.90
6357;DHT22;3211;53.452;-2.264;2023-04-01T05:49:07;8.10;99.90
6357;DHT22;3211;53.452;-2.264;2023-04-01T05:51:34;8.10;99.90
6357;DHT22;3211;53.452;-2.264;2023-04-01T05:54:01;8.20;99.90
6357;DHT22;3211;53.452;-2.264;2023-04-01T05:56:28;8.10;99.90
6357;DHT22;3211;53.452;-2.264;2023-04-01T05:58:55;8.20;99.90
6357;DHT22;3211;53.452;-2.264;2023-04-01T06:01:22;8.30;99.90
6357;DHT22;3211;53.452;-2.264;2023-04-01T06:03:50;8.30;99.90
6357;DHT22;3211;53.452;-2.264;2023-04-01T06:06:23;8.40;99.90
6357;DHT22;3211;53.452;-2.264;2023-04-01T06:08:52;8.40;99.90
6357;DHT22;3211;53.452;-2.264;2023-04-01T06:11:24;8.40;99.90
6357;DHT22;3211;53.452;-2.264;2023-04-01T06:14:12;8.40;99.90
6357;DHT22;3211;53.452;-2.264;2023-04-01T06:16:57;8.40;99.90
6357;DHT22;3211;53.452;-2.264;2023-04-01T06:19:33;8.40;99.90
6357;DHT22;3211;53.452;-2.264;2023-04-01T06:25:22;8.40;99.90
6357;DHT22;3211;53.452;-2.264;2023-04-01T06:28:01;8.50;99.90
6357;DHT22;3211;53.452;-2.264;2023-04-01T06:30:38;8.60;99.90
6357;DHT22;3211;53.452;-2.264;2023-04-01T06:33:42;8.60;99.90
6357;DHT22;3211;53.452;-2.264;2023-04-01T06:36:23;8.70;99.90
6357;DHT22;3211;53.452;-2.264;2023-04-01T06:39:01;8.70;99.90
6357;DHT22;3211;53.452;-2.264;2023-04-01T06:44:34;8.80;99.90
6357;DHT22;3211;53.452;-2.264;2023-04-01T06:47:11;8.80;99.90
6357;DHT22;3211;53.452;-2.264;2023-04-01T06:49:50;8.80;99.90
6357;DHT22;3211;53.452;-2.264;2023-04-01T06:52:26;8.80;99.90
6357;DHT22;3211;53.452;-2.264;2023-04-01T06:55:02;8.70;99.90
6357;DHT22;3211;53.452;-2.264;2023-04-01T06:57:35;8.80;99.90
6357;DHT22;3211;53.452;-2.264;2023-04-01T07:00:13;8.70;99.90
6357;DHT22;3211;53.452;-2.264;2023-04-01T07:02:45;8.70;99.90
6357;DHT22;3211;53.452;-2.264;2023-04-01T07:05:19;8.80;99.90
6357;DHT22;3211;53.452;-2.264;2023-04-01T07:07:50;8.80;99.90
6357;DHT22;3211;53.452;-2.264;2023-04-01T07:10:22;8.90;99.90
6357;DHT22;3211;53.452;-2.264;2023-04-01T07:12:53;9.00;99.90
6357;DHT22;3211;53.452;-2.264;2023-04-01T07:15:25;8.90;99.90
6357;DHT22;3211;53.452;-2.264;2023-04-01T07:17:55;8.80;99.90
6357;DHT22;3211;53.452;-2.264;2023-04-01T07:20:25;8.90;99.90
6357;DHT22;3211;53.452;-2.264;2023-04-01T07:22:58;8.90;99.90
6357;DHT22;3211;53.452;-2.264;2023-04-01T07:25:28;8.90;99.90
6357;DHT22;3211;53.452;-2.264;2023-04-01T07:28:01;9.00;99.90
6357;DHT22;3211;53.452;-2.264;2023-04-01T07:30:37;9.00;99.90
6357;DHT22;3211;53.452;-2.264;2023-04-01T07:33:12;8.90;99.90
6357;DHT22;3211;53.452;-2.264;2023-04-01T07:35:44;9.10;99.90
6357;DHT22;3211;53.452;-2.264;2023-04-01T07:38:21;9.20;99.90
6357;DHT22;3211;53.452;-2.264;2023-04-01T07:41:01;9.20;99.90
6357;DHT22;3211;53.452;-2.264;2023-04-01T07:43:44;9.10;99.90
6357;DHT22;3211;53.452;-2.264;2023-04-01T07:46:22;9.10;99.90
6357;DHT22;3211;53.452;-2.264;2023-04-01T07:48:58;9.10;99.90
6357;DHT22;3211;53.452;-2.264;2023-04-01T07:51:34;9.20;99.90
6357;DHT22;3211;53.452;-2.264;2023-04-01T07:54:11;9.20;99.90
6357;DHT22;3211;53.452;-2.264;2023-04-01T07:56:43;9.10;99.90
6357;DHT22;3211;53.452;-2.264;2023-04-01T07:59:17;9.00;99.90
6357;DHT22;3211;53.452;-2.264;2023-04-01T08:01:50;9.10;99.90
6357;DHT22;3211;53.452;-2.264;2023-04-01T08:04:41;9.20;99.90
6357;DHT22;3211;53.452;-2.264;2023-04-01T08:07:14;9.20;99.90
6357;DHT22;3211;53.452;-2.264;2023-04-01T08:09:52;9.50;99.90
6357;DHT22;3211;53.452;-2.264;2023-04-01T08:12:31;9.40;99.90
6357;DHT22;3211;53.452;-2.264;2023-04-01T08:15:11;9.50;99.90
6357;DHT22;3211;53.452;-2.264;2023-04-01T08:17:45;9.60;99.90
6357;DHT22;3211;53.452;-2.264;2023-04-01T08:20:28;9.60;99.90
6357;DHT22;3211;53.452;-2.264;2023-04-01T08:23:00;9.70;99.90
6357;DHT22;3211;53.452;-2.264;2023-04-01T08:25:32;9.80;99.90
6357;DHT22;3211;53.452;-2.264;2023-04-01T08:28:05;9.80;99.90
6357;DHT22;3211;53.452;-2.264;2023-04-01T08:30:40;10.00;99.90
6357;DHT22;3211;53.452;-2.264;2023-04-01T08:33:13;10.10;99.90
6357;DHT22;3211;53.452;-2.264;2023-04-01T08:35:46;10.10;99.90
6357;DHT22;3211;53.452;-2.264;2023-04-01T08:38:19;10.00;99.90
6357;DHT22;3211;53.452;-2.264;2023-04-01T08:40:57;9.90;99.90
6357;DHT22;3211;53.452;-2.264;2023-04-01T08:43:46;9.90;99.90
6357;DHT22;3211;53.452;-2.264;2023-04-01T08:49:45;10.00;99.90
6357;DHT22;3211;53.452;-2.264;2023-04-01T08:52:29;10.10;99.90
6357;DHT22;3211;53.452;-2.264;2023-04-01T08:55:14;10.30;99.90
6357;DHT22;3211;53.452;-2.264;2023-04-01T08:57:58;10.40;99.90
6357;DHT22;3211;53.452;-2.264;2023-04-01T09:00:31;10.70;99.90
6357;DHT22;3211;53.452;-2.264;2023-04-01T09:03:22;10.90;99.90
6357;DHT22;3211;53.452;-2.264;2023-04-01T09:06:24;10.70;99.90
6357;DHT22;3211;53.452;-2.264;2023-04-01T09:09:15;10.80;99.90
6357;DHT22;3211;53.452;-2.264;2023-04-01T09:12:06;10.50;99.90
6357;DHT22;3211;53.452;-2.264;2023-04-01T09:15:01;10.20;99.90
6357;DHT22;3211;53.452;-2.264;2023-04-01T09:18:02;10.10;99.90
6357;DHT22;3211;53.452;-2.264;2023-04-01T09:21:16;10.30;99.90
6357;DHT22;3211;53.452;-2.264;2023-04-01T09:24:06;10.70;99.90
6357;DHT22;3211;53.452;-2.264;2023-04-01T09:27:01;10.80;99.90
6357;DHT22;3211;53.452;-2.264;2023-04-01T09:29:51;10.60;99.90
6357;DHT22;3211;53.452;-2.264;2023-04-01T09:32:37;10.60;99.90
6357;DHT22;3211;53.452;-2.264;2023-04-01T09:35:20;10.70;99.90
6357;DHT22;3211;53.452;-2.264;2023-04-01T09:37:53;11.00;99.90
6357;DHT22;3211;53.452;-2.264;2023-04-01T09:40:31;11.40;99.90
6357;DHT22;3211;53.452;-2.264;2023-04-01T09:43:21;11.30;99.90
6357;DHT22;3211;53.452;-2.264;2023-04-01T09:46:04;11.10;99.90
6357;DHT22;3211;53.452;-2.264;2023-04-01T09:49:05;11.00;99.90
6357;DHT22;3211;53.452;-2.264;2023-04-01T09:51:39;11.20;99.90
6357;DHT22;3211;53.452;-2.264;2023-04-01T09:54:16;11.10;99.90
6357;DHT22;3211;53.452;-2.264;2023-04-01T09:57:10;11.00;99.90
6357;DHT22;3211;53.452;-2.264;2023-04-01T10:00:16;10.90;99.90
6357;DHT22;3211;53.452;-2.264;2023-04-01T10:03:18;11.10;99.90
6357;DHT22;3211;53.452;-2.264;2023-04-01T10:06:12;11.20;98.60
6357;DHT22;3211;53.452;-2.264;2023-04-01T10:09:15;11.20;89.70
6357;DHT22;3211;53.452;-2.264;2023-04-01T10:12:05;11.20;98.40
6357;DHT22;3211;53.452;-2.264;2023-04-01T10:15:04;11.20;95.20
6357;DHT22;3211;53.452;-2.264;2023-04-01T10:18:06;11.20;91.00
6357;DHT22;3211;53.452;-2.264;2023-04-01T10:27:02;11.30;80.30
6357;DHT22;3211;53.452;-2.264;2023-04-01T10:29:52;11.40;51.30
6357;DHT22;3211;53.452;-2.264;2023-04-01T10:36:16;11.80;53.90
6357;DHT22;3211;53.452;-2.264;2023-04-01T10:39:17;11.80;28.30
6357;DHT22;3211;53.452;-2.264;2023-04-01T10:42:17;11.70;34.00
6357;DHT22;3211;53.452;-2.264;2023-04-01T10:45:21;11.60;24.00
6357;DHT22;3211;53.452;-2.264;2023-04-01T10:48:09;11.50;24.40
6357;DHT22;3211;53.452;-2.264;2023-04-01T10:53:45;11.10;13.30
6357;DHT22;3211;53.452;-2.264;2023-04-01T10:56:32;11.20;22.50
6357;DHT22;3211;53.452;-2.264;2023-04-01T11:21:20;12.40;1.00
6357;DHT22;3211;53.452;-2.264;2023-04-01T11:24:11;12.30;1.00
6357;DHT22;3211;53.452;-2.264;2023-04-01T11:26:51;12.20;1.00
6357;DHT22;3211;53.452;-2.264;2023-04-01T11:29:47;12.00;1.00
6357;DHT22;3211;53.452;-2.264;2023-04-01T11:32:29;12.00;1.00
6357;DHT22;3211;53.452;-2.264;2023-04-01T11:35:18;11.90;1.00
6357;DHT22;3211;53.452;-2.264;2023-04-01T11:37:54;11.90;1.00
6357;DHT22;3211;53.452;-2.264;2023-04-01T11:40:28;12.00;1.00
6357;DHT22;3211;53.452;-2.264;2023-04-01T11:43:06;11.80;1.00
6357;DHT22;3211;53.452;-2.264;2023-04-01T11:45:36;11.80;1.00
6357;DHT22;3211;53.452;-2.264;2023-04-01T11:48:17;11.80;1.00
6357;DHT22;3211;53.452;-2.264;2023-04-01T11:51:05;11.80;1.00
6357;DHT22;3211;53.452;-2.264;2023-04-01T11:53:44;11.80;1.00
6357;DHT22;3211;53.452;-2.264;2023-04-01T11:56:21;11.80;1.00
6357;DHT22;3211;53.452;-2.264;2023-04-01T11:59:04;11.80;1.00
6357;DHT22;3211;53.452;-2.264;2023-04-01T12:01:44;11.70;1.00
6357;DHT22;3211;53.452;-2.264;2023-04-01T12:07:27;11.70;1.00
6357;DHT22;3211;53.452;-2.264;2023-04-01T12:10:04;11.60;1.00
6357;DHT22;3211;53.452;-2.264;2023-04-01T12:12:38;11.60;1.00
6357;DHT22;3211;53.452;-2.264;2023-04-01T12:15:19;11.60;1.00
6357;DHT22;3211;53.452;-2.264;2023-04-01T12:17:50;11.70;1.00
6357;DHT22;3211;53.452;-2.264;2023-04-01T12:20:28;11.80;1.00
6357;DHT22;3211;53.452;-2.264;2023-04-01T12:23:05;11.80;1.00
6357;DHT22;3211;53.452;-2.264;2023-04-01T12:25:52;11.60;1.00
6357;DHT22;3211;53.452;-2.264;2023-04-01T12:28:28;11.70;1.00
6357;DHT22;3211;53.452;-2.264;2023-04-01T12:31:07;11.70;1.00
6357;DHT22;3211;53.452;-2.264;2023-04-01T12:33:59;11.80;1.00
6357;DHT22;3211;53.452;-2.264;2023-04-01T12:36:40;11.70;1.00
6357;DHT22;3211;53.452;-2.264;2023-04-01T12:39:28;11.70;1.00
6357;DHT22;3211;53.452;-2.264;2023-04-01T12:42:07;11.50;1.00
6357;DHT22;3211;53.452;-2.264;2023-04-01T12:44:52;11.50;1.00
6357;DHT22;3211;53.452;-2.264;2023-04-01T12:47:33;11.30;1.00
6357;DHT22;3211;53.452;-2.264;2023-04-01T12:50:26;11.30;1.00
6357;DHT22;3211;53.452;-2.264;2023-04-01T12:53:13;11.50;1.00
6357;DHT22;3211;53.452;-2.264;2023-04-01T12:55:45;11.50;1.00
6357;DHT22;3211;53.452;-2.264;2023-04-01T13:01:23;11.50;1.00
6357;DHT22;3211;53.452;-2.264;2023-04-01T13:09:45;11.80;1.00
6357;DHT22;3211;53.452;-2.264;2023-04-01T13:12:30;11.90;1.00
6357;DHT22;3211;53.452;-2.264;2023-04-01T13:15:16;11.80;1.00
6357;DHT22;3211;53.452;-2.264;2023-04-01T13:17:49;11.80;1.00
6357;DHT22;3211;53.452;-2.264;2023-04-01T13:20:24;11.70;1.00
6357;DHT22;3211;53.452;-2.264;2023-04-01T13:23:03;11.70;1.00
6357;DHT22;3211;53.452;-2.264;2023-04-01T13:25:39;11.70;1.00
6357;DHT22;3211;53.452;-2.264;2023-04-01T13:28:14;11.80;1.00
6357;DHT22;3211;53.452;-2.264;2023-04-01T13:30:49;11.90;1.00
6357;DHT22;3211;53.452;-2.264;2023-04-01T13:33:24;12.00;1.00
6357;DHT22;3211;53.452;-2.264;2023-04-01T13:36:05;11.90;1.00
6357;DHT22;3211;53.452;-2.264;2023-04-01T13:38:52;11.70;1.00
6357;DHT22;3211;53.452;-2.264;2023-04-01T13:41:33;11.80;1.00
6357;DHT22;3211;53.452;-2.264;2023-04-01T13:44:11;11.80;1.00
6357;DHT22;3211;53.452;-2.264;2023-04-01T13:50:01;11.80;1.00
6357;DHT22;3211;53.452;-2.264;2023-04-01T13:55:48;11.90;1.00
6357;DHT22;3211;53.452;-2.264;2023-04-01T14:01:13;11.80;1.00
6357;DHT22;3211;53.452;-2.264;2023-04-01T14:04:21;11.80;1.00
6357;DHT22;3211;53.452;-2.264;2023-04-01T14:07:04;11.70;1.00
6357;DHT22;3211;53.452;-2.264;2023-04-01T14:09:45;11.70;1.00
6357;DHT22;3211;53.452;-2.264;2023-04-01T14:12:27;11.60;1.00
6357;DHT22;3211;53.452;-2.264;2023-04-01T14:15:08;11.50;1.00
6357;DHT22;3211;53.452;-2.264;2023-04-01T14:17:57;11.70;1.00
6357;DHT22;3211;53.452;-2.264;2023-04-01T14:20:40;11.70;1.00
6357;DHT22;3211;53.452;-2.264;2023-04-01T14:23:31;11.80;1.00
6357;DHT22;3211;53.452;-2.264;2023-04-01T14:29:12;11.60;1.00
6357;DHT22;3211;53.452;-2.264;2023-04-01T14:31:50;11.40;1.00
6357;DHT22;3211;53.452;-2.264;2023-04-01T14:34:27;11.40;1.00
6357;DHT22;3211;53.452;-2.264;2023-04-01T14:37:09;11.50;1.00
6357;DHT22;3211;53.452;-2.264;2023-04-01T14:43:20;11.50;1.00
6357;DHT22;3211;53.452;-2.264;2023-04-01T14:48:52;11.30;1.00
6357;DHT22;3211;53.452;-2.264;2023-04-01T14:51:23;11.20;1.00
6357;DHT22;3211;53.452;-2.264;2023-04-01T14:54:02;11.30;5.60
6357;DHT22;3211;53.452;-2.264;2023-04-01T14:56:38;11.20;1.00
6357;DHT22;3211;53.452;-2.264;2023-04-01T14:59:09;11.10;1.00
6357;DHT22;3211;53.452;-2.264;2023-04-01T15:01:45;11.20;3.20
6357;DHT22;3211;53.452;-2.264;2023-04-01T15:04:49;11.20;4.20
6357;DHT22;3211;53.452;-2.264;2023-04-01T15:10:53;11.30;7.60
6357;DHT22;3211;53.452;-2.264;2023-04-01T15:13:35;11.30;5.90
6357;DHT22;3211;53.452;-2.264;2023-04-01T15:16:11;11.40;22.70
6357;DHT22;3211;53.452;-2.264;2023-04-01T15:18:49;11.30;23.30
6357;DHT22;3211;53.452;-2.264;2023-04-01T15:21:44;11.30;24.80
6357;DHT22;3211;53.452;-2.264;2023-04-01T15:24:21;11.30;25.80
6357;DHT22;3211;53.452;-2.264;2023-04-01T15:27:12;11.40;20.70
6357;DHT22;3211;53.452;-2.264;2023-04-01T15:29:55;11.30;29.50
6357;DHT22;3211;53.452;-2.264;2023-04-01T15:32:32;11.20;41.30
6357;DHT22;3211;53.452;-2.264;2023-04-01T15:35:14;11.10;57.00
6357;DHT22;3211;53.452;-2.264;2023-04-01T15:37:50;11.10;76.80
6357;DHT22;3211;53.452;-2.264;2023-04-01T15:40:23;11.00;99.90
6357;DHT22;3211;53.452;-2.264;2023-04-01T15:43:02;11.00;99.90
6357;DHT22;3211;53.452;-2.264;2023-04-01T15:45:42;10.90;99.90
6357;DHT22;3211;53.452;-2.264;2023-04-01T15:48:26;10.90;99.90
6357;DHT22;3211;53.452;-2.264;2023-04-01T15:51:07;11.10;99.90
6357;DHT22;3211;53.452;-2.264;2023-04-01T15:53:53;11.10;99.90
6357;DHT22;3211;53.452;-2.264;2023-04-01T16:02:22;11.10;99.90
6357;DHT22;3211;53.452;-2.264;2023-04-01T16:05:00;11.20;99.90
6357;DHT22;3211;53.452;-2.264;2023-04-01T16:07:47;11.10;99.90
6357;DHT22;3211;53.452;-2.264;2023-04-01T16:10:37;10.90;99.90
6357;DHT22;3211;53.452;-2.264;2023-04-01T16:13:22;10.80;99.90
6357;DHT22;3211;53.452;-2.264;2023-04-01T16:15:56;10.70;99.90
6357;DHT22;3211;53.452;-2.264;2023-04-01T16:18:42;10.60;99.90
6357;DHT22;3211;53.452;-2.264;2023-04-01T16:21:19;10.50;99.90
6357;DHT22;3211;53.452;-2.264;2023-04-01T16:23:51;10.40;99.90
6357;DHT22;3211;53.452;-2.264;2023-04-01T16:26:26;10.50;99.90
6357;DHT22;3211;53.452;-2.264;2023-04-01T16:28:57;10.50;99.90
6357;DHT22;3211;53.452;-2.264;2023-04-01T16:31:32;10.60;99.90
6357;DHT22;3211;53.452;-2.264;2023-04-01T16:34:08;10.70;99.90
6357;DHT22;3211;53.452;-2.264;2023-04-01T16:36:43;11.00;99.90
6357;DHT22;3211;53.452;-2.264;2023-04-01T16:39:30;10.90;99.90
6357;DHT22;3211;53.452;-2.264;2023-04-01T16:42:21;11.00;99.90
6357;DHT22;3211;53.452;-2.264;2023-04-01T16:44:53;11.00;99.90
6357;DHT22;3211;53.452;-2.264;2023-04-01T16:47:23;11.00;99.90
6357;DHT22;3211;53.452;-2.264;2023-04-01T16:49:58;11.00;99.90
6357;DHT22;3211;53.452;-2.264;2023-04-01T16:52:42;10.90;99.90
6357;DHT22;3211;53.452;-2.264;2023-04-01T16:55:16;10.80;99.90
6357;DHT22;3211;53.452;-2.264;2023-04-01T16:57:48;10.80;99.90
6357;DHT22;3211;53.452;-2.264;2023-04-01T17:00:25;10.80;99.90
6357;DHT22;3211;53.452;-2.264;2023-04-01T17:03:03;10.80;99.90
6357;DHT22;3211;53.452;-2.264;2023-04-01T17:05:43;10.90;99.90
6357;DHT22;3211;53.452;-2.264;2023-04-01T17:08:21;10.80;99.90
6357;DHT22;3211;53.452;-2.264;2023-04-01T17:10:54;10.90;99.90
6357;DHT22;3211;53.452;-2.264;2023-04-01T17:13:46;10.80;99.90
6357;DHT22;3211;53.452;-2.264;2023-04-01T17:16:28;10.80;99.90
6357;DHT22;3211;53.452;-2.264;2023-04-01T17:19:04;10.60;99.90
6357;DHT22;3211;53.452;-2.264;2023-04-01T17:21:47;10.50;99.90
6357;DHT22;3211;53.452;-2.264;2023-04-01T17:24:27;10.50;99.90
6357;DHT22;3211;53.452;-2.264;2023-04-01T17:27:08;10.60;99.90
6357;DHT22;3211;53.452;-2.264;2023-04-01T17:29:59;10.50;99.90
6357;DHT22;3211;53.452;-2.264;2023-04-01T17:32:40;10.40;99.90
6357;DHT22;3211;53.452;-2.264;2023-04-01T17:35:15;10.40;99.90
6357;DHT22;3211;53.452;-2.264;2023-04-01T17:37:52;10.50;99.90
6357;DHT22;3211;53.452;-2.264;2023-04-01T17:40:32;10.60;99.90
6357;DHT22;3211;53.452;-2.264;2023-04-01T17:43:09;10.60;99.90
6357;DHT22;3211;53.452;-2.264;2023-04-01T17:45:44;10.60;99.90
6357;DHT22;3211;53.452;-2.264;2023-04-01T17:48:21;10.60;99.90
6357;DHT22;3211;53.452;-2.264;2023-04-01T17:50:59;10.50;99.90
6357;DHT22;3211;53.452;-2.264;2023-04-01T17:53:33;10.50;99.90
6357;DHT22;3211;53.452;-2.264;2023-04-01T17:56:14;10.50;99.90
6357;DHT22;3211;53.452;-2.264;2023-04-01T17:58:48;10.40;99.90
6357;DHT22;3211;53.452;-2.264;2023-04-01T18:01:38;10.40;99.90
6357;DHT22;3211;53.452;-2.264;2023-04-01T18:04:15;10.40;99.90
6357;DHT22;3211;53.452;-2.264;2023-04-01T18:06:57;10.40;99.90
6357;DHT22;3211;53.452;-2.264;2023-04-01T18:09:35;10.30;99.90
6357;DHT22;3211;53.452;-2.264;2023-04-01T18:12:12;10.40;99.90
6357;DHT22;3211;53.452;-2.264;2023-04-01T18:15:08;10.50;99.90
6357;DHT22;3211;53.452;-2.264;2023-04-01T18:17:45;10.40;99.90
6357;DHT22;3211;53.452;-2.264;2023-04-01T18:20:27;10.30;99.90
6357;DHT22;3211;53.452;-2.264;2023-04-01T18:22:59;10.30;99.90
6357;DHT22;3211;53.452;-2.264;2023-04-01T18:25:32;10.30;99.90